sensor_id;sensor_type;location;lat;lon;timestamp;temperature;humidity
6333;DHT22;3199;49.102;8.856;2022-11-20T00:02:24;4.50;99.90
6333;DHT22;3199;49.102;8.856;2022-11-20T00:04:50;4.50;99.90
6333;DHT22;3199;49.102;8.856;2022-11-20T00:07:15;4.60;99.90
6333;DHT22;3199;49.102;8.856;2022-11-20T00:09:41;4.60;99.90
6333;DHT22;3199;49.102;8.856;2022-11-20T00:12:06;4.60;99.90
6333;DHT22;3199;49.102;8.856;2022-11-20T00:14:32;4.60;99.90
6333;DHT22;3199;49.102;8.856;2022-11-20T00:16:57;4.60;99.90
6333;DHT22;3199;49.102;8.856;2022-11-20T00:19:23;4.60;99.90
6333;DHT22;3199;49.102;8.856;2022-11-20T00:21:49;4.60;99.90
6333;DHT22;3199;49.102;8.856;2022-11-20T00:24:16;4.60;99.90
6333;DHT22;3199;49.102;8.856;2022-11-20T00:26:42;4.60;99.90
6333;DHT22;3199;49.102;8.856;2022-11-20T00:29:09;4.60;99.90
6333;DHT22;3199;49.102;8.856;2022-11-20T00:31:35;4.60;99.90
6333;DHT22;3199;49.102;8.856;2022-11-20T00:34:01;4.60;99.90
6333;DHT22;3199;49.102;8.856;2022-11-20T00:36:28;4.60;99.90
6333;DHT22;3199;49.102;8.856;2022-11-20T00:38:56;4.70;99.90
6333;DHT22;3199;49.102;8.856;2022-11-20T00:41:22;4.70;99.90
6333;DHT22;3199;49.102;8.856;2022-11-20T00:43:48;4.70;99.90
6333;DHT22;3199;49.102;8.856;2022-11-20T00:46:16;4.70;99.90
6333;DHT22;3199;49.102;8.856;2022-11-20T00:48:43;4.70;99.90
6333;DHT22;3199;49.102;8.856;2022-11-20T00:51:11;4.70;99.90
6333;DHT22;3199;49.102;8.856;2022-11-20T00:53:37;4.80;99.90
6333;DHT22;3199;49.102;8.856;2022-11-20T00:56:07;4.70;99.90
6333;DHT22;3199;49.102;8.856;2022-11-20T00:58:36;4.70;99.90
6333;DHT22;3199;49.102;8.856;2022-11-20T01:03:41;4.70;99.90
6333;DHT22;3199;49.102;8.856;2022-11-20T01:06:12;4.70;99.90
6333;DHT22;3199;49.102;8.856;2022-11-20T01:08:38;4.80;99.90
6333;DHT22;3199;49.102;8.856;2022-11-20T01:11:09;4.80;99.90
6333;DHT22;3199;49.102;8.856;2022-11-20T01:13:35;4.80;99.90
6333;DHT22;3199;49.102;8.856;2022-11-20T01:16:15;4.80;99.90
6333;DHT22;3199;49.102;8.856;2022-11-20T01:18:43;4.80;99.90
6333;DHT22;3199;49.102;8.856;2022-11-20T01:21:16;4.80;99.90
6333;DHT22;3199;49.102;8.856;2022-11-20T01:23:43;4.80;99.90
6333;DHT22;3199;49.102;8.856;2022-11-20T01:26:14;4.80;99.90
6333;DHT22;3199;49.102;8.856;2022-11-20T01:28:40;4.80;99.90
6333;DHT22;3199;49.102;8.856;2022-11-20T01:31:22;4.80;99.90
6333;DHT22;3199;49.102;8.856;2022-11-20T01:33:50;4.80;99.90
6333;DHT22;3199;49.102;8.856;2022-11-20T01:36:16;4.80;99.90
6333;DHT22;3199;49.102;8.856;2022-11-20T01:38:42;4.90;99.90
6333;DHT22;3199;49.102;8.856;2022-11-20T01:41:09;4.90;99.90
6333;DHT22;3199;49.102;8.856;2022-11-20T01:43:35;4.90;99.90
6333;DHT22;3199;49.102;8.856;2022-11-20T01:46:13;4.90;99.90
6333;DHT22;3199;49.102;8.856;2022-11-20T01:48:45;4.90;99.90
6333;DHT22;3199;49.102;8.856;2022-11-20T01:51:30;5.00;99.90
6333;DHT22;3199;49.102;8.856;2022-11-20T01:54:00;5.00;99.90
6333;DHT22;3199;49.102;8.856;2022-11-20T01:56:27;5.10;99.90
6333;DHT22;3199;49.102;8.856;2022-11-20T01:58:56;5.10;99.90
6333;DHT22;3199;49.102;8.856;2022-11-20T02:01:23;5.10;99.90
6333;DHT22;3199;49.102;8.856;2022-11-20T02:03:49;5.20;99.90
6333;DHT22;3199;49.102;8.856;2022-11-20T02:06:35;5.20;99.90
6333;DHT22;3199;49.102;8.856;2022-11-20T02:09:01;5.20;99.90
6333;DHT22;3199;49.102;8.856;2022-11-20T02:11:27;5.20;99.90
6333;DHT22;3199;49.102;8.856;2022-11-20T02:13:53;5.30;99.90
6333;DHT22;3199;49.102;8.856;2022-11-20T02:16:31;5.30;99.90
6333;DHT22;3199;49.102;8.856;2022-11-20T02:19:01;5.40;99.90
6333;DHT22;3199;49.102;8.856;2022-11-20T02:24:06;5.50;99.90
6333;DHT22;3199;49.102;8.856;2022-11-20T02:27:17;5.50;99.90
6333;DHT22;3199;49.102;8.856;2022-11-20T02:29:36;5.60;99.90
6333;DHT22;3199;49.102;8.856;2022-11-20T02:32:03;5.60;99.90
6333;DHT22;3199;49.102;8.856;2022-11-20T02:34:28;5.70;99.90
6333;DHT22;3199;49.102;8.856;2022-11-20T02:36:54;5.70;99.90
6333;DHT22;3199;49.102;8.856;2022-11-20T02:39:22;5.70;99.90
6333;DHT22;3199;49.102;8.856;2022-11-20T02:41:52;5.80;99.90
6333;DHT22;3199;49.102;8.856;2022-11-20T02:44:18;5.80;99.90
6333;DHT22;3199;49.102;8.856;2022-11-20T02:46:45;5.90;99.90
6333;DHT22;3199;49.102;8.856;2022-11-20T02:49:10;5.90;99.90
6333;DHT22;3199;49.102;8.856;2022-11-20T02:51:36;5.90;99.90
6333;DHT22;3199;49.102;8.856;2022-11-20T02:54:02;6.00;99.90
6333;DHT22;3199;49.102;8.856;2022-11-20T02:56:27;6.00;99.90
6333;DHT22;3199;49.102;8.856;2022-11-20T02:58:53;6.00;99.90
6333;DHT22;3199;49.102;8.856;2022-11-20T03:01:18;6.00;99.90
6333;DHT22;3199;49.102;8.856;2022-11-20T03:03:44;6.10;99.90
6333;DHT22;3199;49.102;8.856;2022-11-20T03:06:10;6.10;99.90
6333;DHT22;3199;49.102;8.856;2022-11-20T03:08:35;6.20;99.90
6333;DHT22;3199;49.102;8.856;2022-11-20T03:11:06;6.20;99.90
6333;DHT22;3199;49.102;8.856;2022-11-20T03:13:32;6.20;99.90
6333;DHT22;3199;49.102;8.856;2022-11-20T03:15:58;6.20;99.90
6333;DHT22;3199;49.102;8.856;2022-11-20T03:18:24;6.30;99.90
6333;DHT22;3199;49.102;8.856;2022-11-20T03:20:49;6.20;99.90
6333;DHT22;3199;49.102;8.856;2022-11-20T03:23:15;6.30;99.90
6333;DHT22;3199;49.102;8.856;2022-11-20T03:25:40;6.30;99.90
6333;DHT22;3199;49.102;8.856;2022-11-20T03:28:06;6.30;99.90
6333;DHT22;3199;49.102;8.856;2022-11-20T03:30:31;6.30;99.90
6333;DHT22;3199;49.102;8.856;2022-11-20T03:32:57;6.30;99.90
6333;DHT22;3199;49.102;8.856;2022-11-20T03:35:22;6.40;99.90
6333;DHT22;3199;49.102;8.856;2022-11-20T03:37:48;6.40;99.90
6333;DHT22;3199;49.102;8.856;2022-11-20T03:40:13;6.40;99.90
6333;DHT22;3199;49.102;8.856;2022-11-20T03:42:39;6.40;99.90
6333;DHT22;3199;49.102;8.856;2022-11-20T03:45:12;6.40;99.90
6333;DHT22;3199;49.102;8.856;2022-11-20T03:47:38;6.40;99.90
6333;DHT22;3199;49.102;8.856;2022-11-20T03:50:04;6.40;99.90
6333;DHT22;3199;49.102;8.856;2022-11-20T03:52:30;6.50;99.90
6333;DHT22;3199;49.102;8.856;2022-11-20T03:54:55;6.50;99.90
6333;DHT22;3199;49.102;8.856;2022-11-20T03:57:21;6.50;99.90
6333;DHT22;3199;49.102;8.856;2022-11-20T03:59:46;6.50;99.90
6333;DHT22;3199;49.102;8.856;2022-11-20T04:02:12;6.50;99.90
6333;DHT22;3199;49.102;8.856;2022-11-20T04:04:37;6.50;99.90
6333;DHT22;3199;49.102;8.856;2022-11-20T04:07:03;6.50;99.90
6333;DHT22;3199;49.102;8.856;2022-11-20T04:09:28;6.50;99.90
6333;DHT22;3199;49.102;8.856;2022-11-20T04:11:54;6.50;99.90
6333;DHT22;3199;49.102;8.856;2022-11-20T04:14:19;6.50;99.90
6333;DHT22;3199;49.102;8.856;2022-11-20T04:16:45;6.50;99.90
6333;DHT22;3199;49.102;8.856;2022-11-20T04:19:15;6.50;99.90
6333;DHT22;3199;49.102;8.856;2022-11-20T04:21:43;6.50;99.90
6333;DHT22;3199;49.102;8.856;2022-11-20T04:24:08;6.50;99.90
6333;DHT22;3199;49.102;8.856;2022-11-20T04:26:35;6.50;99.90
6333;DHT22;3199;49.102;8.856;2022-11-20T04:29:02;6.50;99.90
6333;DHT22;3199;49.102;8.856;2022-11-20T04:31:30;6.50;99.90
6333;DHT22;3199;49.102;8.856;2022-11-20T04:34:00;6.50;99.90
6333;DHT22;3199;49.102;8.856;2022-11-20T04:36:28;6.50;99.90
6333;DHT22;3199;49.102;8.856;2022-11-20T04:38:55;6.50;99.90
6333;DHT22;3199;49.102;8.856;2022-11-20T04:41:26;6.50;99.90
6333;DHT22;3199;49.102;8.856;2022-11-20T04:43:55;6.50;99.90
6333;DHT22;3199;49.102;8.856;2022-11-20T04:46:25;6.50;99.90
6333;DHT22;3199;49.102;8.856;2022-11-20T04:48:51;6.50;99.90
6333;DHT22;3199;49.102;8.856;2022-11-20T04:51:16;6.50;99.90
6333;DHT22;3199;49.102;8.856;2022-11-20T04:53:42;6.50;99.90
6333;DHT22;3199;49.102;8.856;2022-11-20T04:56:10;6.50;99.90
6333;DHT22;3199;49.102;8.856;2022-11-20T04:58:36;6.50;99.90
6333;DHT22;3199;49.102;8.856;2022-11-20T05:01:07;6.60;99.90
6333;DHT22;3199;49.102;8.856;2022-11-20T05:03:33;6.60;99.90
6333;DHT22;3199;49.102;8.856;2022-11-20T05:06:03;6.60;99.90
6333;DHT22;3199;49.102;8.856;2022-11-20T05:08:30;6.60;99.90
6333;DHT22;3199;49.102;8.856;2022-11-20T05:11:10;6.60;99.90
6333;DHT22;3199;49.102;8.856;2022-11-20T05:13:36;6.60;99.90
6333;DHT22;3199;49.102;8.856;2022-11-20T05:16:13;6.60;99.90
6333;DHT22;3199;49.102;8.856;2022-11-20T05:18:39;6.60;99.90
6333;DHT22;3199;49.102;8.856;2022-11-20T05:21:05;6.60;99.90
6333;DHT22;3199;49.102;8.856;2022-11-20T05:23:32;6.60;99.90
6333;DHT22;3199;49.102;8.856;2022-11-20T05:25:58;6.70;99.90
6333;DHT22;3199;49.102;8.856;2022-11-20T05:28:24;6.60;99.90
6333;DHT22;3199;49.102;8.856;2022-11-20T05:30:50;6.70;99.90
6333;DHT22;3199;49.102;8.856;2022-11-20T05:33:17;6.70;99.90
6333;DHT22;3199;49.102;8.856;2022-11-20T05:35:42;6.70;99.90
6333;DHT22;3199;49.102;8.856;2022-11-20T05:38:08;6.70;99.90
6333;DHT22;3199;49.102;8.856;2022-11-20T05:40:33;6.70;99.90
6333;DHT22;3199;49.102;8.856;2022-11-20T05:42:59;6.70;99.90
6333;DHT22;3199;49.102;8.856;2022-11-20T05:45:25;6.70;99.90
6333;DHT22;3199;49.102;8.856;2022-11-20T05:47:51;6.70;99.90
6333;DHT22;3199;49.102;8.856;2022-11-20T05:50:16;6.70;99.90
6333;DHT22;3199;49.102;8.856;2022-11-20T05:52:42;6.70;99.90
6333;DHT22;3199;49.102;8.856;2022-11-20T05:55:07;6.70;99.90
6333;DHT22;3199;49.102;8.856;2022-11-20T05:57:33;6.70;99.90
6333;DHT22;3199;49.102;8.856;2022-11-20T05:59:59;6.70;99.90
6333;DHT22;3199;49.102;8.856;2022-11-20T06:02:24;6.70;99.90
6333;DHT22;3199;49.102;8.856;2022-11-20T06:04:50;6.70;99.90
6333;DHT22;3199;49.102;8.856;2022-11-20T06:07:16;6.70;99.90
6333;DHT22;3199;49.102;8.856;2022-11-20T06:09:41;6.70;99.90
6333;DHT22;3199;49.102;8.856;2022-11-20T06:12:07;6.70;99.90
6333;DHT22;3199;49.102;8.856;2022-11-20T06:14:32;6.70;99.90
6333;DHT22;3199;49.102;8.856;2022-11-20T06:16:58;6.70;99.90
6333;DHT22;3199;49.102;8.856;2022-11-20T06:19:24;6.80;99.90
6333;DHT22;3199;49.102;8.856;2022-11-20T06:21:49;6.80;99.90
6333;DHT22;3199;49.102;8.856;2022-11-20T06:24:15;6.80;99.90
6333;DHT22;3199;49.102;8.856;2022-11-20T06:26:41;6.80;99.90
6333;DHT22;3199;49.102;8.856;2022-11-20T06:29:07;6.80;99.90
6333;DHT22;3199;49.102;8.856;2022-11-20T06:31:32;6.80;99.90
6333;DHT22;3199;49.102;8.856;2022-11-20T06:34:00;6.80;99.90
6333;DHT22;3199;49.102;8.856;2022-11-20T06:36:26;6.80;99.90
6333;DHT22;3199;49.102;8.856;2022-11-20T06:38:51;6.80;99.90
6333;DHT22;3199;49.102;8.856;2022-11-20T06:41:20;6.80;99.90
6333;DHT22;3199;49.102;8.856;2022-11-20T06:43:45;6.70;99.90
6333;DHT22;3199;49.102;8.856;2022-11-20T06:46:12;6.70;99.90
6333;DHT22;3199;49.102;8.856;2022-11-20T06:48:39;6.70;99.90
6333;DHT22;3199;49.102;8.856;2022-11-20T06:51:05;6.70;99.90
6333;DHT22;3199;49.102;8.856;2022-11-20T06:53:31;6.60;99.90
6333;DHT22;3199;49.102;8.856;2022-11-20T06:55:57;6.60;99.90
6333;DHT22;3199;49.102;8.856;2022-11-20T06:58:23;6.50;99.90
6333;DHT22;3199;49.102;8.856;2022-11-20T07:00:51;6.50;99.90
6333;DHT22;3199;49.102;8.856;2022-11-20T07:03:16;6.50;99.90
6333;DHT22;3199;49.102;8.856;2022-11-20T07:05:42;6.50;99.90
6333;DHT22;3199;49.102;8.856;2022-11-20T07:08:09;6.50;99.90
6333;DHT22;3199;49.102;8.856;2022-11-20T07:10:35;6.50;99.90
6333;DHT22;3199;49.102;8.856;2022-11-20T07:13:00;6.50;99.90
6333;DHT22;3199;49.102;8.856;2022-11-20T07:15:26;6.50;99.90
6333;DHT22;3199;49.102;8.856;2022-11-20T07:17:51;6.50;99.90
6333;DHT22;3199;49.102;8.856;2022-11-20T07:20:17;6.50;99.90
6333;DHT22;3199;49.102;8.856;2022-11-20T07:22:43;6.50;99.90
6333;DHT22;3199;49.102;8.856;2022-11-20T07:25:09;6.50;99.90
6333;DHT22;3199;49.102;8.856;2022-11-20T07:27:35;6.60;99.90
6333;DHT22;3199;49.102;8.856;2022-11-20T07:30:01;6.60;99.90
6333;DHT22;3199;49.102;8.856;2022-11-20T07:32:27;6.60;99.90
6333;DHT22;3199;49.102;8.856;2022-11-20T07:34:52;6.60;99.90
6333;DHT22;3199;49.102;8.856;2022-11-20T07:37:18;6.60;99.90
6333;DHT22;3199;49.102;8.856;2022-11-20T07:39:44;6.70;99.90
6333;DHT22;3199;49.102;8.856;2022-11-20T07:42:09;6.70;99.90
6333;DHT22;3199;49.102;8.856;2022-11-20T07:44:37;6.70;99.90
6333;DHT22;3199;49.102;8.856;2022-11-20T07:47:03;6.70;99.90
6333;DHT22;3199;49.102;8.856;2022-11-20T07:49:28;6.60;99.90
6333;DHT22;3199;49.102;8.856;2022-11-20T07:51:54;6.60;99.90
6333;DHT22;3199;49.102;8.856;2022-11-20T07:54:20;6.60;99.90
6333;DHT22;3199;49.102;8.856;2022-11-20T07:56:47;6.60;99.90
6333;DHT22;3199;49.102;8.856;2022-11-20T07:59:12;6.60;99.90
6333;DHT22;3199;49.102;8.856;2022-11-20T08:01:42;6.60;99.90
6333;DHT22;3199;49.102;8.856;2022-11-20T08:04:08;6.60;99.90
6333;DHT22;3199;49.102;8.856;2022-11-20T08:06:35;6.60;99.90
6333;DHT22;3199;49.102;8.856;2022-11-20T08:09:00;6.50;99.90
6333;DHT22;3199;49.102;8.856;2022-11-20T08:11:26;6.60;99.90
6333;DHT22;3199;49.102;8.856;2022-11-20T08:14:10;6.60;99.90
6333;DHT22;3199;49.102;8.856;2022-11-20T08:16:43;6.60;99.90
6333;DHT22;3199;49.102;8.856;2022-11-20T08:19:09;6.60;99.90
6333;DHT22;3199;49.102;8.856;2022-11-20T08:21:35;6.60;99.90
6333;DHT22;3199;49.102;8.856;2022-11-20T08:24:00;6.60;99.90
6333;DHT22;3199;49.102;8.856;2022-11-20T08:26:26;6.60;99.90
6333;DHT22;3199;49.102;8.856;2022-11-20T08:28:56;6.70;99.90
6333;DHT22;3199;49.102;8.856;2022-11-20T08:31:22;6.70;99.90
6333;DHT22;3199;49.102;8.856;2022-11-20T08:33:48;6.70;99.90
6333;DHT22;3199;49.102;8.856;2022-11-20T08:36:14;6.70;99.90
6333;DHT22;3199;49.102;8.856;2022-11-20T08:38:39;6.70;99.90
6333;DHT22;3199;49.102;8.856;2022-11-20T08:41:05;6.70;99.90
6333;DHT22;3199;49.102;8.856;2022-11-20T08:44:09;6.70;99.90
6333;DHT22;3199;49.102;8.856;2022-11-20T08:46:39;6.70;99.90
6333;DHT22;3199;49.102;8.856;2022-11-20T08:49:08;6.70;99.90
6333;DHT22;3199;49.102;8.856;2022-11-20T08:51:34;6.70;99.90
6333;DHT22;3199;49.102;8.856;2022-11-20T08:54:00;6.70;99.90
6333;DHT22;3199;49.102;8.856;2022-11-20T08:56:26;6.70;99.90
6333;DHT22;3199;49.102;8.856;2022-11-20T08:58:52;6.70;99.90
6333;DHT22;3199;49.102;8.856;2022-11-20T09:01:19;6.70;99.90
6333;DHT22;3199;49.102;8.856;2022-11-20T09:03:45;6.70;99.90
6333;DHT22;3199;49.102;8.856;2022-11-20T09:06:11;6.80;99.90
6333;DHT22;3199;49.102;8.856;2022-11-20T09:08:36;6.80;99.90
6333;DHT22;3199;49.102;8.856;2022-11-20T09:11:03;6.90;99.90
6333;DHT22;3199;49.102;8.856;2022-11-20T09:13:29;7.00;99.90
6333;DHT22;3199;49.102;8.856;2022-11-20T09:16:01;7.00;99.90
6333;DHT22;3199;49.102;8.856;2022-11-20T09:18:28;7.00;99.90
6333;DHT22;3199;49.102;8.856;2022-11-20T09:21:01;7.10;99.90
6333;DHT22;3199;49.102;8.856;2022-11-20T09:23:30;7.10;99.90
6333;DHT22;3199;49.102;8.856;2022-11-20T09:25:56;7.10;99.90
6333;DHT22;3199;49.102;8.856;2022-11-20T09:28:25;7.20;99.90
6333;DHT22;3199;49.102;8.856;2022-11-20T09:30:50;7.20;99.90
6333;DHT22;3199;49.102;8.856;2022-11-20T09:33:16;7.20;99.90
6333;DHT22;3199;49.102;8.856;2022-11-20T09:35:43;7.20;99.90
6333;DHT22;3199;49.102;8.856;2022-11-20T09:38:09;7.20;99.90
6333;DHT22;3199;49.102;8.856;2022-11-20T09:40:39;7.20;99.90
6333;DHT22;3199;49.102;8.856;2022-11-20T09:49:17;7.30;99.90
6333;DHT22;3199;49.102;8.856;2022-11-20T09:51:53;7.40;99.90
6333;DHT22;3199;49.102;8.856;2022-11-20T09:54:35;7.40;99.90
6333;DHT22;3199;49.102;8.856;2022-11-20T09:57:05;7.40;99.90
6333;DHT22;3199;49.102;8.856;2022-11-20T09:59:40;7.50;99.90
6333;DHT22;3199;49.102;8.856;2022-11-20T10:05:04;7.60;99.90
6333;DHT22;3199;49.102;8.856;2022-11-20T10:10:03;7.80;99.90
6333;DHT22;3199;49.102;8.856;2022-11-20T10:15:51;7.80;99.90
6333;DHT22;3199;49.102;8.856;2022-11-20T10:18:39;7.80;99.90
6333;DHT22;3199;49.102;8.856;2022-11-20T10:26:57;7.80;99.90
6333;DHT22;3199;49.102;8.856;2022-11-20T10:29:29;7.80;99.90
6333;DHT22;3199;49.102;8.856;2022-11-20T10:32:02;7.70;99.90
6333;DHT22;3199;49.102;8.856;2022-11-20T10:34:46;7.60;99.90
6333;DHT22;3199;49.102;8.856;2022-11-20T10:37:29;7.60;99.90
6333;DHT22;3199;49.102;8.856;2022-11-20T10:40:05;7.60;99.90
6333;DHT22;3199;49.102;8.856;2022-11-20T10:42:44;7.60;99.90
6333;DHT22;3199;49.102;8.856;2022-11-20T10:50:35;7.50;99.90
6333;DHT22;3199;49.102;8.856;2022-11-20T10:53:26;7.50;99.90
6333;DHT22;3199;49.102;8.856;2022-11-20T10:56:02;7.50;99.90
6333;DHT22;3199;49.102;8.856;2022-11-20T10:59:02;7.40;99.90
6333;DHT22;3199;49.102;8.856;2022-11-20T11:01:28;7.40;99.90
6333;DHT22;3199;49.102;8.856;2022-11-20T11:03:55;7.40;99.90
6333;DHT22;3199;49.102;8.856;2022-11-20T11:06:30;7.40;99.90
6333;DHT22;3199;49.102;8.856;2022-11-20T11:09:01;7.40;99.90
6333;DHT22;3199;49.102;8.856;2022-11-20T11:11:33;7.50;99.90
6333;DHT22;3199;49.102;8.856;2022-11-20T11:14:11;7.50;99.90
6333;DHT22;3199;49.102;8.856;2022-11-20T11:16:55;7.60;99.90
6333;DHT22;3199;49.102;8.856;2022-11-20T11:19:21;7.70;99.90
6333;DHT22;3199;49.102;8.856;2022-11-20T11:21:54;7.80;99.90
6333;DHT22;3199;49.102;8.856;2022-11-20T11:24:27;7.90;99.90
6333;DHT22;3199;49.102;8.856;2022-11-20T11:27:01;7.90;99.90
6333;DHT22;3199;49.102;8.856;2022-11-20T11:29:32;8.00;99.90
6333;DHT22;3199;49.102;8.856;2022-11-20T11:32:17;8.00;99.90
6333;DHT22;3199;49.102;8.856;2022-11-20T11:34:43;8.10;99.90
6333;DHT22;3199;49.102;8.856;2022-11-20T11:37:20;8.20;99.90
6333;DHT22;3199;49.102;8.856;2022-11-20T11:39:49;8.30;99.90
6333;DHT22;3199;49.102;8.856;2022-11-20T11:42:18;8.50;99.90
6333;DHT22;3199;49.102;8.856;2022-11-20T11:44:46;8.50;99.90
6333;DHT22;3199;49.102;8.856;2022-11-20T11:47:33;8.60;99.90
6333;DHT22;3199;49.102;8.856;2022-11-20T11:52:48;8.70;99.90
6333;DHT22;3199;49.102;8.856;2022-11-20T11:55:36;8.70;99.90
6333;DHT22;3199;49.102;8.856;2022-11-20T12:00:54;8.60;99.90
6333;DHT22;3199;49.102;8.856;2022-11-20T12:03:34;8.60;99.90
6333;DHT22;3199;49.102;8.856;2022-11-20T12:06:06;8.60;99.90
6333;DHT22;3199;49.102;8.856;2022-11-20T12:08:48;8.80;99.90
6333;DHT22;3199;49.102;8.856;2022-11-20T12:11:37;9.00;99.90
6333;DHT22;3199;49.102;8.856;2022-11-20T12:14:19;9.10;99.90
6333;DHT22;3199;49.102;8.856;2022-11-20T12:16:51;9.10;99.90
6333;DHT22;3199;49.102;8.856;2022-11-20T12:19:18;9.00;99.90
6333;DHT22;3199;49.102;8.856;2022-11-20T12:25:09;8.80;99.90
6333;DHT22;3199;49.102;8.856;2022-11-20T12:30:12;8.70;99.90
6333;DHT22;3199;49.102;8.856;2022-11-20T12:40:44;9.00;99.90
6333;DHT22;3199;49.102;8.856;2022-11-20T12:43:21;9.20;99.90
6333;DHT22;3199;49.102;8.856;2022-11-20T12:46:46;9.50;99.90
6333;DHT22;3199;49.102;8.856;2022-11-20T12:51:58;9.60;99.90
6333;DHT22;3199;49.102;8.856;2022-11-20T12:57:15;9.50;99.90
6333;DHT22;3199;49.102;8.856;2022-11-20T13:06:00;9.40;99.90
6333;DHT22;3199;49.102;8.856;2022-11-20T13:08:35;9.30;99.90
6333;DHT22;3199;49.102;8.856;2022-11-20T13:14:14;9.10;99.90
6333;DHT22;3199;49.102;8.856;2022-11-20T13:17:28;9.00;99.90
6333;DHT22;3199;49.102;8.856;2022-11-20T13:19:53;8.90;99.90
6333;DHT22;3199;49.102;8.856;2022-11-20T13:22:42;8.80;99.90
6333;DHT22;3199;49.102;8.856;2022-11-20T13:25:10;8.80;99.90
6333;DHT22;3199;49.102;8.856;2022-11-20T13:27:35;8.80;99.90
6333;DHT22;3199;49.102;8.856;2022-11-20T13:30:13;8.90;99.90
6333;DHT22;3199;49.102;8.856;2022-11-20T13:32:59;8.90;99.90
6333;DHT22;3199;49.102;8.856;2022-11-20T13:35:35;8.90;99.90
6333;DHT22;3199;49.102;8.856;2022-11-20T13:40:29;9.10;99.90
6333;DHT22;3199;49.102;8.856;2022-11-20T13:45:41;9.40;99.90
6333;DHT22;3199;49.102;8.856;2022-11-20T13:48:40;9.50;99.90
6333;DHT22;3199;49.102;8.856;2022-11-20T13:51:46;9.50;99.90
6333;DHT22;3199;49.102;8.856;2022-11-20T14:02:01;9.40;99.90
6333;DHT22;3199;49.102;8.856;2022-11-20T14:04:33;9.30;99.90
6333;DHT22;3199;49.102;8.856;2022-11-20T14:07:00;9.30;99.90
6333;DHT22;3199;49.102;8.856;2022-11-20T14:09:28;9.30;99.90
6333;DHT22;3199;49.102;8.856;2022-11-20T14:11:54;9.30;99.90
6333;DHT22;3199;49.102;8.856;2022-11-20T14:14:22;9.20;99.90
6333;DHT22;3199;49.102;8.856;2022-11-20T14:16:49;9.10;99.90
6333;DHT22;3199;49.102;8.856;2022-11-20T14:19:25;9.00;99.90
6333;DHT22;3199;49.102;8.856;2022-11-20T14:21:54;9.00;99.90
6333;DHT22;3199;49.102;8.856;2022-11-20T14:24:31;8.90;99.90
6333;DHT22;3199;49.102;8.856;2022-11-20T14:26:56;8.90;99.90
6333;DHT22;3199;49.102;8.856;2022-11-20T14:29:28;8.90;99.90
6333;DHT22;3199;49.102;8.856;2022-11-20T14:31:55;8.90;99.90
6333;DHT22;3199;49.102;8.856;2022-11-20T14:34:30;8.90;99.90
6333;DHT22;3199;49.102;8.856;2022-11-20T14:36:59;8.80;99.90
6333;DHT22;3199;49.102;8.856;2022-11-20T14:39:30;8.70;99.90
6333;DHT22;3199;49.102;8.856;2022-11-20T14:41:57;8.60;99.90
6333;DHT22;3199;49.102;8.856;2022-11-20T14:44:41;8.60;99.90
6333;DHT22;3199;49.102;8.856;2022-11-20T14:47:11;8.50;99.90
6333;DHT22;3199;49.102;8.856;2022-11-20T14:49:38;8.40;99.90
6333;DHT22;3199;49.102;8.856;2022-11-20T14:52:30;8.40;99.90
6333;DHT22;3199;49.102;8.856;2022-11-20T14:54:57;8.30;99.90
6333;DHT22;3199;49.102;8.856;2022-11-20T14:57:31;8.30;99.90
6333;DHT22;3199;49.102;8.856;2022-11-20T15:02:43;8.20;99.90
6333;DHT22;3199;49.102;8.856;2022-11-20T15:05:08;8.20;99.90
6333;DHT22;3199;49.102;8.856;2022-11-20T15:07:40;8.10;99.90
6333;DHT22;3199;49.102;8.856;2022-11-20T15:10:10;8.10;99.90
6333;DHT22;3199;49.102;8.856;2022-11-20T15:12:40;8.00;99.90
6333;DHT22;3199;49.102;8.856;2022-11-20T15:15:12;8.00;99.90
6333;DHT22;3199;49.102;8.856;2022-11-20T15:17:40;7.90;99.90
6333;DHT22;3199;49.102;8.856;2022-11-20T15:20:12;7.90;99.90
6333;DHT22;3199;49.102;8.856;2022-11-20T15:22:38;7.80;99.90
6333;DHT22;3199;49.102;8.856;2022-11-20T15:25:19;7.80;99.90
6333;DHT22;3199;49.102;8.856;2022-11-20T15:27:45;7.70;99.90
6333;DHT22;3199;49.102;8.856;2022-11-20T15:30:17;7.70;99.90
6333;DHT22;3199;49.102;8.856;2022-11-20T15:32:43;7.60;99.90
6333;DHT22;3199;49.102;8.856;2022-11-20T15:35:10;7.60;99.90
6333;DHT22;3199;49.102;8.856;2022-11-20T15:37:36;7.60;99.90
6333;DHT22;3199;49.102;8.856;2022-11-20T15:40:03;7.60;99.90
6333;DHT22;3199;49.102;8.856;2022-11-20T15:42:29;7.50;99.90
6333;DHT22;3199;49.102;8.856;2022-11-20T15:44:54;7.50;99.90
6333;DHT22;3199;49.102;8.856;2022-11-20T15:47:25;7.50;99.90
6333;DHT22;3199;49.102;8.856;2022-11-20T15:49:52;7.50;99.90
6333;DHT22;3199;49.102;8.856;2022-11-20T15:52:17;7.40;99.90
6333;DHT22;3199;49.102;8.856;2022-11-20T15:54:43;7.40;99.90
6333;DHT22;3199;49.102;8.856;2022-11-20T15:57:08;7.40;99.90
6333;DHT22;3199;49.102;8.856;2022-11-20T15:59:34;7.40;99.90
6333;DHT22;3199;49.102;8.856;2022-11-20T16:02:02;7.30;99.90
6333;DHT22;3199;49.102;8.856;2022-11-20T16:04:27;7.30;99.90
6333;DHT22;3199;49.102;8.856;2022-11-20T16:06:53;7.30;99.90
6333;DHT22;3199;49.102;8.856;2022-11-20T16:09:18;7.30;99.90
6333;DHT22;3199;49.102;8.856;2022-11-20T16:11:44;7.20;99.90
6333;DHT22;3199;49.102;8.856;2022-11-20T16:14:10;7.20;99.90
6333;DHT22;3199;49.102;8.856;2022-11-20T16:16:55;7.30;99.90
6333;DHT22;3199;49.102;8.856;2022-11-20T16:19:20;7.30;99.90
6333;DHT22;3199;49.102;8.856;2022-11-20T16:21:46;7.30;99.90
6333;DHT22;3199;49.102;8.856;2022-11-20T16:24:13;7.30;99.90
6333;DHT22;3199;49.102;8.856;2022-11-20T16:26:39;7.20;99.90
6333;DHT22;3199;49.102;8.856;2022-11-20T16:29:06;7.20;99.90
6333;DHT22;3199;49.102;8.856;2022-11-20T16:31:32;7.20;99.90
6333;DHT22;3199;49.102;8.856;2022-11-20T16:34:00;7.20;99.90
6333;DHT22;3199;49.102;8.856;2022-11-20T16:36:27;7.20;99.90
6333;DHT22;3199;49.102;8.856;2022-11-20T16:38:55;7.20;99.90
6333;DHT22;3199;49.102;8.856;2022-11-20T16:41:21;7.20;99.90
6333;DHT22;3199;49.102;8.856;2022-11-20T16:43:49;7.10;99.90
6333;DHT22;3199;49.102;8.856;2022-11-20T16:46:15;7.10;99.90
6333;DHT22;3199;49.102;8.856;2022-11-20T16:48:41;7.10;99.90
6333;DHT22;3199;49.102;8.856;2022-11-20T16:51:09;7.10;99.90
6333;DHT22;3199;49.102;8.856;2022-11-20T16:53:35;7.10;99.90
6333;DHT22;3199;49.102;8.856;2022-11-20T16:56:12;7.10;99.90
6333;DHT22;3199;49.102;8.856;2022-11-20T16:58:38;7.00;99.90
6333;DHT22;3199;49.102;8.856;2022-11-20T17:01:08;7.00;99.90
6333;DHT22;3199;49.102;8.856;2022-11-20T17:03:39;7.00;99.90
6333;DHT22;3199;49.102;8.856;2022-11-20T17:06:15;7.00;99.90
6333;DHT22;3199;49.102;8.856;2022-11-20T17:08:41;7.00;99.90
6333;DHT22;3199;49.102;8.856;2022-11-20T17:11:07;7.00;99.90
6333;DHT22;3199;49.102;8.856;2022-11-20T17:13:34;7.00;99.90
6333;DHT22;3199;49.102;8.856;2022-11-20T17:16:04;7.00;99.90
6333;DHT22;3199;49.102;8.856;2022-11-20T17:18:30;7.00;99.90
6333;DHT22;3199;49.102;8.856;2022-11-20T17:20:56;7.00;99.90
6333;DHT22;3199;49.102;8.856;2022-11-20T17:23:22;7.00;99.90
6333;DHT22;3199;49.102;8.856;2022-11-20T17:25:47;7.00;99.90
6333;DHT22;3199;49.102;8.856;2022-11-20T17:28:13;7.00;99.90
6333;DHT22;3199;49.102;8.856;2022-11-20T17:30:38;7.00;99.90
6333;DHT22;3199;49.102;8.856;2022-11-20T17:33:04;7.00;99.90
6333;DHT22;3199;49.102;8.856;2022-11-20T17:35:29;7.00;99.90
6333;DHT22;3199;49.102;8.856;2022-11-20T17:37:55;7.00;99.90
6333;DHT22;3199;49.102;8.856;2022-11-20T17:40:20;7.10;99.90
6333;DHT22;3199;49.102;8.856;2022-11-20T17:42:46;7.10;99.90
6333;DHT22;3199;49.102;8.856;2022-11-20T17:45:11;7.10;99.90
6333;DHT22;3199;49.102;8.856;2022-11-20T17:47:37;7.10;99.90
6333;DHT22;3199;49.102;8.856;2022-11-20T17:50:03;7.00;99.90
6333;DHT22;3199;49.102;8.856;2022-11-20T17:52:29;7.00;99.90